Time;durP1;ratioP1;P1;durP2;ratioP2;P2;SDS_P1;SDS_P2;PMS_P1;PMS_P2;Temp;Humidity;BMP_temperature;BMP_pressure;BME280_temperature;BME280_humidity;BME280_pressure;Samples;Min_cycle;Max_cycle;Signal;HPM_P1;HPM_P2
2023/05/28 00:01:51;;;;;;;3.30;2.40;;;14.30;98.00;;;;;;5073645;28;20457;-68
2023/05/28 00:04:21;;;;;;;9.30;3.63;;;14.00;98.00;;;;;;5073992;28;20460;-68
2023/05/28 00:06:48;;;;;;;13.90;4.20;;;14.00;98.00;;;;;;5074190;28;20481;-67
2023/05/28 00:09:15;;;;;;;7.00;3.63;;;13.90;98.00;;;;;;5056285;28;20479;-67
2023/05/28 00:11:43;;;;;;;6.53;3.30;;;14.00;98.00;;;;;;5074033;28;20448;-67
2023/05/28 00:14:10;;;;;;;5.07;3.20;;;13.90;98.00;;;;;;5056198;28;20545;-67
2023/05/28 00:16:40;;;;;;;6.73;3.47;;;13.70;98.00;;;;;;5073865;28;20502;-67
2023/05/28 00:19:09;;;;;;;10.30;4.20;;;13.50;98.00;;;;;;5073836;28;20969;-68
2023/05/28 00:21:37;;;;;;;8.13;3.80;;;13.40;98.00;;;;;;5074043;28;20483;-67
2023/05/28 00:24:05;;;;;;;5.43;3.30;;;13.50;98.00;;;;;;5073918;28;20457;-67
2023/05/28 00:26:32;;;;;;;6.47;3.70;;;13.50;98.00;;;;;;5073964;28;20460;-67
2023/05/28 00:28:59;;;;;;;5.80;3.50;;;13.40;98.00;;;;;;5073705;28;20457;-67
2023/05/28 00:31:26;;;;;;;7.80;3.67;;;13.50;98.00;;;;;;5072895;28;20519;-67
2023/05/28 00:33:53;;;;;;;6.10;3.40;;;13.30;98.00;;;;;;5073745;28;20460;-67
2023/05/28 00:36:20;;;;;;;9.50;4.23;;;13.30;98.00;;;;;;5073524;28;20518;-67
2023/05/28 00:38:49;;;;;;;6.23;3.90;;;13.40;98.00;;;;;;5073856;28;20453;-67
2023/05/28 00:41:20;;;;;;;7.70;3.27;;;13.20;98.00;;;;;;5073396;28;20522;-68
2023/05/28 00:43:47;;;;;;;6.63;2.93;;;13.20;98.00;;;;;;5073724;28;20547;-67
2023/05/28 00:46:17;;;;;;;12.40;4.53;;;13.20;98.00;;;;;;5055892;28;20457;-67
2023/05/28 00:48:45;;;;;;;7.13;3.13;;;13.10;98.00;;;;;;5056275;28;20455;-67
2023/05/28 00:51:13;;;;;;;7.73;3.53;;;13.10;98.00;;;;;;5072803;28;20499;-68
2023/05/28 00:53:41;;;;;;;6.73;3.60;;;13.20;98.00;;;;;;5072927;28;20457;-67
2023/05/28 00:56:13;;;;;;;8.03;3.20;;;13.30;98.00;;;;;;5072756;28;20472;-67
2023/05/28 00:58:40;;;;;;;8.20;3.10;;;13.20;98.00;;;;;;5073052;28;20929;-67
2023/05/28 01:01:08;;;;;;;4.83;3.10;;;13.10;98.00;;;;;;5072854;28;20457;-66
2023/05/28 01:03:38;;;;;;;5.60;3.03;;;13.00;98.00;;;;;;5055658;28;20810;-67
2023/05/28 01:06:09;;;;;;;5.53;2.90;;;13.00;98.00;;;;;;5055514;28;20460;-67
2023/05/28 01:08:37;;;;;;;6.80;3.67;;;13.10;98.00;;;;;;5073259;28;20455;-67
2023/05/28 01:11:04;;;;;;;7.53;3.43;;;13.20;98.00;;;;;;5054841;28;21078;-67
2023/05/28 01:13:34;;;;;;;7.20;3.23;;;13.10;98.00;;;;;;5072664;28;20519;-66
2023/05/28 01:16:02;;;;;;;7.07;3.63;;;13.10;98.00;;;;;;5072804;28;20473;-66
2023/05/28 01:18:29;;;;;;;10.03;3.93;;;13.00;98.00;;;;;;5054936;28;20475;-66
2023/05/28 01:20:56;;;;;;;6.10;3.43;;;13.00;98.00;;;;;;5054926;28;20466;-67
2023/05/28 01:23:28;;;;;;;5.63;3.00;;;13.00;98.00;;;;;;5072751;28;20459;-67
2023/05/28 01:25:59;;;;;;;8.33;3.83;;;12.90;98.00;;;;;;5072785;28;20522;-67
2023/05/28 01:28:26;;;;;;;6.53;3.30;;;12.80;98.00;;;;;;5072467;28;20471;-67
2023/05/28 01:30:53;;;;;;;6.80;2.87;;;12.90;98.00;;;;;;5072718;28;20990;-67
2023/05/28 01:33:22;;;;;;;6.00;3.37;;;12.70;98.00;;;;;;5072738;28;20500;-67
2023/05/28 01:35:55;;;;;;;7.93;3.70;;;12.70;98.00;;;;;;5055212;28;21184;-67
2023/05/28 01:38:23;;;;;;;6.27;3.73;;;12.50;98.00;;;;;;5072415;28;20938;-67
2023/05/28 01:40:53;;;;;;;8.90;4.00;;;12.50;98.00;;;;;;5054894;28;20475;-67
2023/05/28 01:43:22;;;;;;;12.10;3.73;;;12.40;98.00;;;;;;5071979;28;20453;-67
2023/05/28 01:45:50;;;;;;;10.13;3.90;;;12.40;98.00;;;;;;5072332;28;20513;-67
2023/05/28 01:48:17;;;;;;;6.63;3.47;;;12.30;98.00;;;;;;5072299;28;20456;-67
2023/05/28 01:50:44;;;;;;;7.63;3.73;;;12.40;98.00;;;;;;5072123;28;20484;-67
2023/05/28 01:53:12;;;;;;;6.40;2.90;;;12.30;98.00;;;;;;5072185;28;20459;-67
2023/05/28 01:55:40;;;;;;;7.27;3.77;;;12.20;98.00;;;;;;5071801;28;20986;-66
2023/05/28 01:58:08;;;;;;;6.60;3.90;;;12.00;98.00;;;;;;5072098;28;20448;-67
2023/05/28 02:00:45;;;;;;;10.73;3.50;;;12.10;98.00;;;;;;5072088;28;20485;-67
2023/05/28 02:03:12;;;;;;;7.80;3.63;;;12.20;98.00;;;;;;5055495;28;20574;-67
2023/05/28 02:05:39;;;;;;;14.60;3.90;;;12.30;98.00;;;;;;5072154;28;20475;-67
2023/05/28 02:08:06;;;;;;;7.60;3.83;;;12.20;98.00;;;;;;5071894;28;20468;-67
2023/05/28 02:10:33;;;;;;;7.43;3.40;;;12.20;98.00;;;;;;5071837;28;20518;-66
2023/05/28 02:13:01;;;;;;;5.70;3.63;;;12.40;98.00;;;;;;5072236;28;20941;-67
2023/05/28 02:15:28;;;;;;;8.40;4.00;;;12.30;98.00;;;;;;5071554;28;20568;-67
2023/05/28 02:17:57;;;;;;;7.43;3.40;;;12.30;98.00;;;;;;5021238;28;20456;-67
2023/05/28 02:20:26;;;;;;;6.80;3.30;;;12.40;98.00;;;;;;5071762;28;20456;-67
2023/05/28 02:22:53;;;;;;;7.53;3.63;;;12.10;98.00;;;;;;5071925;28;20879;-67
2023/05/28 02:25:22;;;;;;;6.33;3.20;;;11.90;98.00;;;;;;5071828;28;20503;-67
2023/05/28 02:27:49;;;;;;;7.87;3.40;;;11.90;98.00;;;;;;5054420;28;20457;-67
2023/05/28 02:30:16;;;;;;;8.67;3.00;;;11.80;98.00;;;;;;5071683;28;20484;-67
2023/05/28 02:32:46;;;;;;;7.90;3.30;;;11.70;98.00;;;;;;5054490;28;20466;-67
2023/05/28 02:35:15;;;;;;;6.17;3.37;;;11.70;98.00;;;;;;5072044;28;20463;-67
2023/05/28 02:37:43;;;;;;;5.63;3.10;;;11.60;98.00;;;;;;5071943;28;20474;-67
2023/05/28 02:40:11;;;;;;;6.03;3.00;;;11.50;98.00;;;;;;5072051;28;20455;-67
2023/05/28 02:42:38;;;;;;;7.50;3.07;;;11.50;98.00;;;;;;5071903;28;20465;-67
2023/05/28 02:45:06;;;;;;;7.00;3.67;;;11.40;98.00;;;;;;5071786;28;20471;-66
2023/05/28 02:47:33;;;;;;;7.33;3.40;;;11.50;98.00;;;;;;5071582;28;20460;-67
2023/05/28 02:50:00;;;;;;;7.13;3.90;;;11.50;98.00;;;;;;5071795;28;20453;-67
2023/05/28 02:52:29;;;;;;;5.47;2.97;;;11.30;98.00;;;;;;5071379;28;20466;-67
2023/05/28 02:54:57;;;;;;;6.43;3.00;;;11.20;98.00;;;;;;5071904;28;20458;-67
2023/05/28 02:57:24;;;;;;;4.90;2.83;;;11.20;98.00;;;;;;5075387;28;20452;-67
2023/05/28 02:59:52;;;;;;;6.10;2.80;;;11.20;98.00;;;;;;5075307;28;20456;-67
2023/05/28 03:02:20;;;;;;;7.07;3.10;;;11.10;98.00;;;;;;5075469;28;20466;-67
2023/05/28 03:04:47;;;;;;;5.63;2.70;;;11.10;98.00;;;;;;5057393;28;21149;-67
2023/05/28 03:07:14;;;;;;;5.97;3.10;;;11.00;98.00;;;;;;5057614;28;20467;-66
2023/05/28 03:09:43;;;;;;;4.40;2.63;;;11.20;98.00;;;;;;5075048;28;20540;-67
2023/05/28 03:12:10;;;;;;;6.90;3.10;;;11.30;98.00;;;;;;5075044;28;20500;-66
2023/05/28 03:14:37;;;;;;;5.23;2.80;;;11.40;98.00;;;;;;5040865;28;20551;-66
2023/05/28 03:17:06;;;;;;;9.13;3.17;;;11.40;98.00;;;;;;5075022;28;20965;-67
2023/05/28 03:19:33;;;;;;;9.63;3.20;;;11.40;98.00;;;;;;5057498;28;20476;-66
2023/05/28 03:22:00;;;;;;;9.53;3.87;;;11.40;98.00;;;;;;5075069;28;20516;-67
2023/05/28 03:24:28;;;;;;;8.47;3.30;;;11.40;98.00;;;;;;5075231;28;20459;-67
2023/05/28 03:26:59;;;;;;;7.70;3.43;;;11.30;98.00;;;;;;5075096;28;20837;-66
2023/05/28 03:29:26;;;;;;;5.90;3.40;;;11.10;98.00;;;;;;5074882;28;20953;-67
2023/05/28 03:31:53;;;;;;;4.60;3.10;;;11.00;98.00;;;;;;5074837;28;20489;-67
2023/05/28 03:34:20;;;;;;;11.90;3.47;;;10.80;98.00;;;;;;5074852;28;20455;-66
2023/05/28 03:36:48;;;;;;;6.43;3.20;;;10.90;98.00;;;;;;5075007;28;20462;-67
2023/05/28 03:39:15;;;;;;;6.43;3.30;;;11.00;98.00;;;;;;5074672;28;20463;-66
2023/05/28 03:41:44;;;;;;;7.90;3.30;;;10.90;98.00;;;;;;5074916;28;20456;-66
2023/05/28 03:44:12;;;;;;;6.27;3.20;;;11.00;98.00;;;;;;5074440;28;20545;-67
2023/05/28 03:46:40;;;;;;;7.00;3.50;;;11.10;98.00;;;;;;5074745;28;20469;-66
2023/05/28 03:49:07;;;;;;;5.60;3.23;;;11.10;98.00;;;;;;5074345;28;20531;-66
2023/05/28 03:51:34;;;;;;;13.43;3.60;;;11.10;98.00;;;;;;5074549;28;20487;-66
2023/05/28 03:54:01;;;;;;;5.80;2.80;;;11.10;98.00;;;;;;5074254;28;20470;-67
2023/05/28 03:56:29;;;;;;;6.90;3.47;;;11.00;98.00;;;;;;5056718;28;20462;-66
2023/05/28 03:58:56;;;;;;;6.27;3.10;;;10.80;98.00;;;;;;5073968;28;20507;-67
2023/05/28 04:01:25;;;;;;;6.20;3.07;;;11.00;98.00;;;;;;5074509;28;20462;-66
2023/05/28 04:03:52;;;;;;;6.07;2.97;;;11.10;98.00;;;;;;5074353;28;20455;-67
2023/05/28 04:06:19;;;;;;;7.90;3.20;;;11.00;98.00;;;;;;5073796;28;20513;-67
2023/05/28 04:08:46;;;;;;;4.60;2.70;;;11.20;98.00;;;;;;5074246;28;20500;-67
2023/05/28 04:11:13;;;;;;;6.87;3.43;;;11.30;98.00;;;;;;5074016;28;20491;-67
2023/05/28 04:13:41;;;;;;;9.33;3.23;;;11.30;98.00;;;;;;5056519;28;20936;-66
2023/05/28 04:16:10;;;;;;;3.97;2.90;;;11.40;98.00;;;;;;5074132;28;21042;-67
2023/05/28 04:18:38;;;;;;;5.67;2.90;;;11.30;98.00;;;;;;5073945;28;20463;-67
2023/05/28 04:21:06;;;;;;;5.50;3.00;;;11.30;98.00;;;;;;5073992;28;20473;-67
2023/05/28 04:23:33;;;;;;;6.50;2.97;;;11.30;98.00;;;;;;5074135;28;20517;-67
2023/05/28 04:26:01;;;;;;;8.30;3.40;;;11.40;98.00;;;;;;5073969;28;20462;-66
2023/05/28 04:28:28;;;;;;;6.93;3.00;;;11.30;98.00;;;;;;5073825;28;20514;-66
2023/05/28 04:31:01;;;;;;;6.07;3.40;;;11.30;98.00;;;;;;5073866;28;20893;-66
2023/05/28 04:33:29;;;;;;;4.93;3.30;;;11.20;98.00;;;;;;5074289;28;20455;-67
2023/05/28 04:35:58;;;;;;;6.03;2.80;;;11.30;98.00;;;;;;5073673;28;20455;-66
2023/05/28 04:38:28;;;;;;;12.77;3.63;;;11.30;98.00;;;;;;5073256;28;20543;-66
2023/05/28 04:40:55;;;;;;;9.30;3.40;;;11.30;98.00;;;;;;5073665;28;20879;-66
2023/05/28 04:43:22;;;;;;;7.17;3.30;;;11.40;98.00;;;;;;5073342;28;20460;-66
2023/05/28 04:45:53;;;;;;;7.53;3.73;;;11.50;98.00;;;;;;5073265;28;20459;-66
2023/05/28 04:48:20;;;;;;;6.30;3.47;;;11.50;98.00;;;;;;5073415;28;20809;-66
2023/05/28 04:50:47;;;;;;;10.27;3.40;;;11.60;98.00;;;;;;5072962;28;20485;-66
2023/05/28 04:53:16;;;;;;;9.47;3.70;;;11.50;98.00;;;;;;5073225;28;20463;-66
2023/05/28 04:55:44;;;;;;;6.10;3.40;;;11.50;98.00;;;;;;5073101;28;20520;-66
2023/05/28 04:58:13;;;;;;;6.70;3.50;;;11.50;98.00;;;;;;5073261;28;20857;-66
2023/05/28 05:00:40;;;;;;;7.60;3.50;;;11.50;98.00;;;;;;5073247;28;20852;-66
2023/05/28 05:03:08;;;;;;;8.30;3.70;;;11.70;98.00;;;;;;5073078;28;20960;-66
2023/05/28 05:05:35;;;;;;;7.17;3.37;;;11.80;98.00;;;;;;5072925;28;20536;-67
2023/05/28 05:08:02;;;;;;;5.10;2.97;;;11.80;98.00;;;;;;5055016;28;20457;-67
2023/05/28 05:10:31;;;;;;;6.10;3.50;;;11.90;98.00;;;;;;5073418;28;20810;-67
2023/05/28 05:12:59;;;;;;;5.40;3.33;;;12.10;98.00;;;;;;5055364;28;20491;-67
2023/05/28 05:15:28;;;;;;;5.93;3.47;;;12.20;98.00;;;;;;5055380;28;20463;-66
2023/05/28 05:17:55;;;;;;;7.50;3.10;;;12.30;98.00;;;;;;5054613;28;20934;-66
2023/05/28 05:20:22;;;;;;;8.97;4.20;;;12.40;98.00;;;;;;5072725;28;20720;-67
2023/05/28 05:22:50;;;;;;;6.80;4.00;;;12.50;98.00;;;;;;5072919;28;20465;-67
2023/05/28 05:25:17;;;;;;;5.80;3.50;;;12.80;98.00;;;;;;5055078;28;20459;-67
2023/05/28 05:27:45;;;;;;;6.97;3.90;;;12.80;98.00;;;;;;5072939;28;21181;-67
2023/05/28 05:30:12;;;;;;;5.50;3.00;;;12.90;98.00;;;;;;5054836;28;20534;-67
2023/05/28 05:32:40;;;;;;;8.20;3.77;;;13.10;98.00;;;;;;5072568;28;20507;-66
2023/05/28 05:35:07;;;;;;;6.93;2.83;;;13.20;98.00;;;;;;5072200;28;20448;-66
2023/05/28 05:37:37;;;;;;;5.07;2.73;;;13.30;98.00;;;;;;5072378;28;20457;-67
2023/05/28 05:40:05;;;;;;;8.87;3.60;;;13.40;98.00;;;;;;5054857;28;20456;-67
2023/05/28 05:42:32;;;;;;;8.67;3.40;;;13.30;98.00;;;;;;5054728;28;20826;-67
2023/05/28 05:45:03;;;;;;;6.53;3.60;;;13.30;98.00;;;;;;5072152;28;20460;-67
2023/05/28 05:47:31;;;;;;;6.40;3.47;;;13.40;98.00;;;;;;5054439;28;21005;-67
2023/05/28 05:49:59;;;;;;;6.50;3.70;;;13.60;98.00;;;;;;5072065;28;20448;-67
2023/05/28 05:52:26;;;;;;;6.70;3.40;;;13.70;98.00;;;;;;5054523;28;20496;-67
2023/05/28 05:54:54;;;;;;;6.50;3.37;;;13.80;98.00;;;;;;5071877;28;20461;-67
2023/05/28 05:57:21;;;;;;;5.87;3.20;;;13.90;98.00;;;;;;5072067;28;20990;-68
2023/05/28 05:59:48;;;;;;;13.50;4.20;;;13.90;98.00;;;;;;5071881;28;20489;-68
2023/05/28 06:02:17;;;;;;;6.83;3.47;;;14.00;98.00;;;;;;5072395;28;20935;-64
2023/05/28 06:04:44;;;;;;;5.70;3.00;;;14.00;98.00;;;;;;5072256;28;20514;-63
2023/05/28 06:07:11;;;;;;;6.40;3.53;;;14.10;98.00;;;;;;5072309;28;20534;-64
2023/05/28 06:09:38;;;;;;;10.47;4.10;;;14.20;98.00;;;;;;5072014;28;20951;-64
2023/05/28 06:12:06;;;;;;;5.90;3.23;;;14.30;98.00;;;;;;5072227;28;20566;-64
2023/05/28 06:14:33;;;;;;;8.80;3.80;;;14.50;98.00;;;;;;5072266;28;20788;-64
2023/05/28 06:17:00;;;;;;;5.70;3.30;;;14.60;98.00;;;;;;5072034;28;20456;-64
2023/05/28 06:19:29;;;;;;;15.33;3.30;;;14.60;98.00;;;;;;5072156;28;20463;-65
2023/05/28 06:21:57;;;;;;;6.90;3.50;;;14.70;98.00;;;;;;5072092;28;20497;-65
2023/05/28 06:24:25;;;;;;;6.80;3.70;;;14.80;98.00;;;;;;5058940;28;20452;-64
2023/05/28 06:26:52;;;;;;;8.70;3.70;;;14.90;98.00;;;;;;5074077;28;20851;-64
2023/05/28 06:29:22;;;;;;;9.77;3.97;;;15.00;98.00;;;;;;5092125;28;20456;-64
2023/05/28 06:31:50;;;;;;;5.70;3.30;;;15.20;98.00;;;;;;5061429;28;20533;-64
2023/05/28 06:34:19;;;;;;;6.00;3.23;;;15.30;98.00;;;;;;5095940;28;20814;-64
2023/05/28 06:36:48;;;;;;;8.77;4.10;;;15.20;98.00;;;;;;5078334;28;20550;-64
2023/05/28 06:39:15;;;;;;;6.97;3.63;;;15.30;98.00;;;;;;5096054;28;20949;-64
2023/05/28 06:41:42;;;;;;;12.73;3.97;;;15.30;98.00;;;;;;5095931;28;20479;-65
2023/05/28 06:44:09;;;;;;;11.07;4.47;;;15.40;98.00;;;;;;5096040;28;20450;-64
2023/05/28 06:46:36;;;;;;;7.63;3.57;;;15.50;98.00;;;;;;5095816;28;20543;-65
2023/05/28 06:49:03;;;;;;;6.83;3.10;;;15.60;98.00;;;;;;5095772;28;20456;-65
2023/05/28 06:51:31;;;;;;;8.10;3.23;;;15.80;98.00;;;;;;5095682;28;20498;-63
2023/05/28 06:53:59;;;;;;;8.03;3.40;;;15.90;98.00;;;;;;5095605;28;20456;-64
2023/05/28 06:56:26;;;;;;;5.20;3.23;;;16.00;98.00;;;;;;5095813;28;20526;-65
2023/05/28 06:58:54;;;;;;;8.20;3.80;;;16.20;98.00;;;;;;5095794;28;20463;-64
2023/05/28 07:01:21;;;;;;;7.97;3.80;;;16.30;98.00;;;;;;5095747;28;20567;-64
2023/05/28 07:03:48;;;;;;;6.97;3.70;;;16.50;98.00;;;;;;5095867;28;20507;-65
2023/05/28 07:06:15;;;;;;;6.30;3.20;;;16.70;98.00;;;;;;5095472;28;20610;-64
2023/05/28 07:08:45;;;;;;;7.80;3.37;;;16.70;98.00;;;;;;5095891;28;20451;-65
2023/05/28 07:11:13;;;;;;;5.75;3.05;;;16.90;98.00;;;;;;5095282;28;20536;-64
2023/05/28 07:13:41;;;;;;;5.50;3.10;;;16.90;98.00;;;;;;5095877;28;20483;-64
2023/05/28 07:16:08;;;;;;;6.27;3.37;;;17.10;98.00;;;;;;5095816;28;20447;-65
2023/05/28 07:18:35;;;;;;;5.27;3.00;;;17.10;98.00;;;;;;5095827;28;20941;-64
2023/05/28 07:21:03;;;;;;;8.27;3.63;;;17.30;98.00;;;;;;5095676;28;20463;-65
2023/05/28 07:23:30;;;;;;;5.77;3.07;;;17.40;98.00;;;;;;5095333;28;20479;-65
2023/05/28 07:25:57;;;;;;;5.63;2.97;;;17.50;98.00;;;;;;5077192;28;20452;-64
2023/05/28 07:28:25;;;;;;;8.60;3.67;;;17.80;98.00;;;;;;5095185;28;20455;-64
2023/05/28 07:30:52;;;;;;;7.67;3.70;;;17.90;98.00;;;;;;5094887;28;20474;-66
2023/05/28 07:33:20;;;;;;;7.60;3.30;;;18.10;98.00;;;;;;5095093;28;20531;-65
2023/05/28 07:35:47;;;;;;;6.30;3.17;;;18.20;98.00;;;;;;5094909;28;20451;-64
2023/05/28 07:38:15;;;;;;;7.13;3.33;;;18.30;98.00;;;;;;5077000;28;20451;-64
2023/05/28 07:40:42;;;;;;;8.30;3.33;;;18.40;98.00;;;;;;5094615;28;20460;-64
2023/05/28 07:43:09;;;;;;;6.37;3.10;;;18.50;98.00;;;;;;5094811;28;20443;-65
2023/05/28 07:45:37;;;;;;;8.40;3.03;;;18.50;98.00;;;;;;5076663;28;20850;-65
2023/05/28 07:48:05;;;;;;;5.60;3.00;;;18.70;98.00;;;;;;5094753;28;20455;-65
2023/05/28 07:50:32;;;;;;;6.50;3.10;;;18.80;98.00;;;;;;5094754;28;20459;-64
2023/05/28 07:52:59;;;;;;;7.47;3.53;;;19.00;98.00;;;;;;5094724;28;20480;-65
2023/05/28 07:55:26;;;;;;;7.67;3.63;;;19.00;98.00;;;;;;5085488;28;20934;-64
2023/05/28 07:57:53;;;;;;;5.03;2.93;;;19.20;98.00;;;;;;5094197;28;20460;-64
2023/05/28 08:00:20;;;;;;;9.93;3.40;;;19.20;98.00;;;;;;5094317;28;20459;-65
2023/05/28 08:02:49;;;;;;;8.30;3.47;;;19.30;98.00;;;;;;5094334;28;20535;-65
2023/05/28 08:05:16;;;;;;;6.30;3.53;;;19.30;98.00;;;;;;5094311;28;20963;-65
2023/05/28 08:07:43;;;;;;;7.13;3.57;;;19.50;98.00;;;;;;5094264;28;20460;-65
2023/05/28 08:10:10;;;;;;;10.53;3.33;;;19.60;97.20;;;;;;5092128;28;20497;-65
2023/05/28 08:12:38;;;;;;;12.83;3.57;;;19.80;98.00;;;;;;5093682;28;20476;-65
2023/05/28 08:15:06;;;;;;;8.40;3.70;;;20.00;98.00;;;;;;5093738;28;20479;-63
2023/05/28 08:17:33;;;;;;;9.00;4.20;;;20.10;98.00;;;;;;5092956;28;20452;-62
2023/05/28 08:20:03;;;;;;;9.40;3.70;;;20.30;97.00;;;;;;5093384;28;20460;-66
2023/05/28 08:22:30;;;;;;;7.80;3.27;;;20.30;98.00;;;;;;5075377;28;20510;-64
2023/05/28 08:24:57;;;;;;;7.87;3.73;;;20.50;95.90;;;;;;5093085;28;20506;-65
2023/05/28 08:27:24;;;;;;;6.23;3.33;;;20.50;95.30;;;;;;5093297;28;20456;-64
2023/05/28 08:29:51;;;;;;;9.03;3.23;;;20.70;95.90;;;;;;5075602;28;20448;-63
2023/05/28 08:32:18;;;;;;;6.57;3.07;;;20.70;96.10;;;;;;5075240;28;20496;-63
2023/05/28 08:34:45;;;;;;;8.63;3.90;;;20.90;96.70;;;;;;5093364;28;20452;-63
2023/05/28 08:37:15;;;;;;;6.23;3.50;;;21.00;97.00;;;;;;5093391;28;20456;-62
2023/05/28 08:39:42;;;;;;;5.03;3.20;;;21.10;96.10;;;;;;5093351;28;20455;-63
2023/05/28 08:42:09;;;;;;;7.53;3.37;;;21.20;93.10;;;;;;5093290;28;20463;-63
2023/05/28 08:44:36;;;;;;;7.20;3.30;;;21.30;94.20;;;;;;5075038;28;20459;-63
2023/05/28 08:47:05;;;;;;;6.37;3.80;;;21.50;95.80;;;;;;5093169;28;20490;-64
2023/05/28 08:49:33;;;;;;;8.17;4.23;;;21.70;94.30;;;;;;5093047;28;20452;-62
2023/05/28 08:52:03;;;;;;;5.93;3.67;;;21.70;93.40;;;;;;5093357;28;20459;-62
2023/05/28 08:54:32;;;;;;;9.70;3.40;;;21.90;93.30;;;;;;5092750;28;20460;-62
2023/05/28 08:57:00;;;;;;;5.90;3.40;;;22.00;92.90;;;;;;5093718;28;20448;-62
2023/05/28 08:59:28;;;;;;;6.30;2.93;;;22.20;92.60;;;;;;5093182;28;20551;-62
2023/05/28 09:01:57;;;;;;;11.20;3.27;;;22.20;90.70;;;;;;5075307;28;20456;-63
2023/05/28 09:04:24;;;;;;;5.57;3.00;;;22.40;90.00;;;;;;5093537;28;20460;-63
2023/05/28 09:06:52;;;;;;;9.30;4.00;;;22.50;90.20;;;;;;5092982;28;20464;-62
2023/05/28 09:09:21;;;;;;;5.90;3.60;;;22.70;91.70;;;;;;5092598;28;20941;-63
2023/05/28 09:11:50;;;;;;;6.13;3.40;;;22.70;90.70;;;;;;5092593;28;20455;-63
2023/05/28 09:14:20;;;;;;;6.63;3.10;;;22.90;89.10;;;;;;5092613;28;20463;-62
2023/05/28 09:16:47;;;;;;;5.40;3.23;;;23.10;89.60;;;;;;5092700;28;20551;-62
2023/05/28 09:19:17;;;;;;;7.40;3.40;;;23.20;88.90;;;;;;5092435;28;20460;-62
2023/05/28 09:21:53;;;;;;;6.27;3.50;;;23.40;89.50;;;;;;5092312;28;20950;-63
2023/05/28 09:24:20;;;;;;;7.70;3.67;;;23.50;87.00;;;;;;5092166;28;20455;-62
2023/05/28 09:26:50;;;;;;;7.90;3.80;;;23.60;87.00;;;;;;5092151;28;20452;-62
2023/05/28 09:29:17;;;;;;;8.57;3.40;;;23.70;85.70;;;;;;5092633;28;20470;-62
2023/05/28 09:31:45;;;;;;;6.03;3.57;;;23.80;84.30;;;;;;5074383;28;20531;-62
2023/05/28 09:34:12;;;;;;;9.80;3.20;;;23.80;84.60;;;;;;5091783;28;20484;-62
2023/05/28 09:36:38;;;;;;;4.47;2.97;;;23.90;88.50;;;;;;5091989;28;20943;-62
2023/05/28 09:39:08;;;;;;;6.77;3.23;;;24.10;86.70;;;;;;5091961;28;20456;-62
2023/05/28 09:41:36;;;;;;;6.13;3.20;;;24.20;85.30;;;;;;5090979;28;20492;-63
2023/05/28 09:44:06;;;;;;;4.90;3.07;;;24.30;85.00;;;;;;5092094;28;20601;-63
2023/05/28 09:46:34;;;;;;;6.90;3.60;;;24.30;82.70;;;;;;5091866;28;20547;-63
2023/05/28 09:49:03;;;;;;;11.37;3.70;;;24.50;84.00;;;;;;5091698;28;20503;-62
2023/05/28 09:51:31;;;;;;;8.97;3.50;;;24.50;82.90;;;;;;5091540;28;20884;-63
2023/05/28 09:54:00;;;;;;;7.43;3.47;;;24.60;84.50;;;;;;5091668;28;20480;-62
2023/05/28 09:56:31;;;;;;;8.13;3.33;;;24.90;85.00;;;;;;5073744;28;20479;-63
2023/05/28 09:58:59;;;;;;;5.27;3.27;;;25.00;83.30;;;;;;5082082;28;20453;-62
2023/05/28 10:01:32;;;;;;;5.83;3.20;;;25.00;80.30;;;;;;5071118;28;20453;-62
2023/05/28 10:04:05;;;;;;;4.93;2.83;;;25.00;79.10;;;;;;5071214;28;20867;-62
2023/05/28 10:06:35;;;;;;;4.90;2.90;;;25.10;79.40;;;;;;5071092;28;20859;-63
2023/05/28 10:09:04;;;;;;;5.87;3.17;;;25.10;80.70;;;;;;5071364;28;20496;-63
2023/05/28 10:11:40;;;;;;;5.83;2.87;;;25.10;79.70;;;;;;5053733;28;20456;-63
2023/05/28 10:14:08;;;;;;;6.23;2.90;;;25.30;79.70;;;;;;5053192;28;20484;-62
2023/05/28 10:16:38;;;;;;;6.67;3.43;;;25.50;78.90;;;;;;5071030;28;20502;-63
2023/05/28 10:19:06;;;;;;;5.30;3.00;;;25.60;75.80;;;;;;5071143;28;20453;-62
2023/05/28 10:21:33;;;;;;;6.70;3.13;;;25.70;77.40;;;;;;5071011;28;20469;-62
2023/05/28 10:24:02;;;;;;;7.67;3.07;;;25.70;78.00;;;;;;5071030;28;20464;-63
2023/05/28 10:26:30;;;;;;;8.63;3.50;;;25.80;77.60;;;;;;5072516;28;20802;-63
2023/05/28 10:28:57;;;;;;;4.80;3.10;;;25.90;77.60;;;;;;5090406;28;20494;-63
2023/05/28 10:31:25;;;;;;;4.87;3.17;;;26.10;74.80;;;;;;5090942;28;20455;-63
2023/05/28 10:33:54;;;;;;;7.60;3.57;;;26.10;73.00;;;;;;5091009;28;21039;-63
2023/05/28 10:36:21;;;;;;;5.87;3.47;;;26.20;73.00;;;;;;5091021;28;20730;-62
2023/05/28 10:38:59;;;;;;;5.43;3.33;;;26.20;74.60;;;;;;5057233;28;20446;-62
2023/05/28 10:41:32;;;;;;;7.77;3.33;;;26.30;73.80;;;;;;5050732;28;20979;-62
2023/05/28 10:44:06;;;;;;;6.13;3.23;;;26.30;75.60;;;;;;5050936;28;20453;-61
2023/05/28 10:46:37;;;;;;;5.80;3.23;;;26.40;73.10;;;;;;5050541;28;20460;-63
2023/05/28 10:49:12;;;;;;;6.30;3.40;;;26.50;74.40;;;;;;5051170;28;20457;-62
2023/05/28 10:52:00;;;;;;;5.73;3.10;;;26.50;73.30;;;;;;5050890;28;20461;-62
2023/05/28 10:54:42;;;;;;;5.40;2.83;;;26.60;72.70;;;;;;5050606;28;20548;-63
2023/05/28 10:57:14;;;;;;;8.18;3.60;;;26.90;72.50;;;;;;5051905;28;20447;-65
2023/05/28 10:59:45;;;;;;;8.73;3.53;;;27.00;73.80;;;;;;5070784;28;20304;-66
2023/05/28 11:02:12;;;;;;;10.80;3.90;;;27.10;72.30;;;;;;5070584;28;20492;-65
2023/05/28 11:04:53;;;;;;;6.43;3.40;;;27.00;71.80;;;;;;5070529;28;21054;-65
2023/05/28 11:07:22;;;;;;;6.77;3.17;;;26.90;71.90;;;;;;5071008;28;20482;-65
2023/05/28 11:09:50;;;;;;;6.30;3.30;;;27.10;71.90;;;;;;5071015;28;20452;-65
2023/05/28 11:12:17;;;;;;;7.70;3.27;;;27.30;73.10;;;;;;5070894;28;20449;-65
2023/05/28 11:14:44;;;;;;;6.30;3.23;;;27.30;72.00;;;;;;5070597;28;20480;-67
2023/05/28 11:17:12;;;;;;;7.97;3.33;;;27.50;73.40;;;;;;5072956;28;20444;-65
2023/05/28 11:19:43;;;;;;;6.17;3.23;;;27.60;68.50;;;;;;5074346;28;20456;-65
2023/05/28 11:22:10;;;;;;;8.20;3.50;;;27.60;70.40;;;;;;5074581;28;20499;-65
2023/05/28 11:24:58;;;;;;;6.33;3.27;;;27.60;71.70;;;;;;5074442;28;20514;-66
2023/05/28 11:27:26;;;;;;;6.10;3.77;;;27.60;71.80;;;;;;5074469;28;20958;-65
2023/05/28 11:29:56;;;;;;;4.83;2.90;;;27.70;69.90;;;;;;5075056;28;20596;-65
2023/05/28 11:32:24;;;;;;;5.37;3.30;;;27.90;74.70;;;;;;5074513;28;20483;-65
2023/05/28 11:34:54;;;;;;;8.27;3.40;;;28.10;69.70;;;;;;5074371;28;20897;-66
2023/05/28 11:37:26;;;;;;;6.23;3.20;;;28.20;71.90;;;;;;5056665;28;20532;-65
2023/05/28 11:39:54;;;;;;;6.17;3.40;;;28.10;71.20;;;;;;5074379;28;20459;-67
2023/05/28 11:42:23;;;;;;;7.17;3.77;;;28.20;69.90;;;;;;5074283;28;20448;-65
2023/05/28 11:44:51;;;;;;;6.47;3.40;;;28.10;70.30;;;;;;5074286;28;20479;-65
2023/05/28 11:47:18;;;;;;;5.85;3.20;;;28.20;70.80;;;;;;5073884;28;20544;-67
2023/05/28 11:49:46;;;;;;;6.03;3.40;;;28.30;69.10;;;;;;5072924;28;20442;-65
2023/05/28 11:52:16;;;;;;;6.73;3.40;;;28.40;68.40;;;;;;5074200;28;20194;-68
2023/05/28 11:54:45;;;;;;;5.50;3.33;;;28.50;64.80;;;;;;5073926;28;20504;-67
2023/05/28 11:57:17;;;;;;;5.10;3.20;;;28.50;67.30;;;;;;5074268;28;20461;-66
2023/05/28 12:00:00;;;;;;;6.10;3.37;;;28.60;69.90;;;;;;5074175;28;20457;-67
2023/05/28 12:02:28;;;;;;;5.33;3.10;;;28.80;66.60;;;;;;5074247;28;20460;-67
2023/05/28 12:04:57;;;;;;;5.00;3.33;;;29.00;66.90;;;;;;5074033;28;20445;-66
2023/05/28 12:07:30;;;;;;;7.13;3.60;;;29.00;64.90;;;;;;5073744;28;20444;-63
2023/05/28 12:10:08;;;;;;;8.77;3.40;;;29.00;67.70;;;;;;5074038;28;20465;-63
2023/05/28 12:12:36;;;;;;;7.47;2.73;;;29.10;67.30;;;;;;5073833;28;20449;-64
2023/05/28 12:15:05;;;;;;;5.60;3.30;;;29.00;65.20;;;;;;5073478;28;20492;-64
2023/05/28 12:17:38;;;;;;;6.00;3.40;;;29.10;67.50;;;;;;5073688;28;20973;-64
2023/05/28 12:20:07;;;;;;;6.40;3.50;;;29.30;64.00;;;;;;5073591;28;20449;-67
2023/05/28 12:22:36;;;;;;;4.90;3.30;;;29.40;64.40;;;;;;5073451;28;20472;-64
2023/05/28 12:25:03;;;;;;;6.03;3.10;;;29.40;65.90;;;;;;5073409;28;20490;-64
2023/05/28 12:27:31;;;;;;;4.20;3.10;;;29.30;65.10;;;;;;5054626;28;20457;-64
2023/05/28 12:29:58;;;;;;;5.80;3.10;;;29.40;66.50;;;;;;5073247;28;20655;-66
2023/05/28 12:32:25;;;;;;;6.97;3.67;;;29.50;66.10;;;;;;5055695;28;20502;-63
2023/05/28 12:34:55;;;;;;;6.67;3.23;;;29.70;68.00;;;;;;5073117;28;20484;-63
2023/05/28 12:37:23;;;;;;;6.27;3.20;;;29.80;64.60;;;;;;5073183;28;20453;-64
2023/05/28 12:39:51;;;;;;;6.90;3.10;;;29.90;64.70;;;;;;5073083;28;20499;-63
2023/05/28 12:42:19;;;;;;;5.87;2.87;;;29.90;63.00;;;;;;5073050;28;20454;-63
2023/05/28 12:44:46;;;;;;;9.83;3.17;;;29.90;62.50;;;;;;5072939;28;20476;-64
2023/05/28 12:47:13;;;;;;;8.27;3.07;;;29.80;61.60;;;;;;5072941;28;20461;-67
2023/05/28 12:49:40;;;;;;;5.30;3.10;;;29.90;61.40;;;;;;5072616;28;20456;-63
2023/05/28 12:52:07;;;;;;;5.50;3.20;;;29.90;64.80;;;;;;5073161;28;20445;-63